createdAt,value
2019-05-02T00:01:22.504Z,20.60
2019-05-02T00:03:53.488Z,18.65
2019-05-02T00:06:24.973Z,15.50
2019-05-02T00:08:56.091Z,17.17
2019-05-02T00:11:28.417Z,15.55
2019-05-02T00:13:59.810Z,18.32
2019-05-02T00:16:32.488Z,16.23
2019-05-02T00:19:08.975Z,18.57
2019-05-02T00:21:40.753Z,19.90
2019-05-02T00:24:11.681Z,20.62
2019-05-02T00:26:48.911Z,18.05
2019-05-02T00:29:18.938Z,18.57
2019-05-02T00:31:52.094Z,16.67
2019-05-02T00:34:24.600Z,19.52
2019-05-02T00:36:55.719Z,21.35
2019-05-02T00:39:26.794Z,21.77
2019-05-02T00:45:32.037Z,26.30
2019-05-02T00:48:33.780Z,20.02
2019-05-02T00:51:04.968Z,17.48
2019-05-02T00:53:37.017Z,23.02
2019-05-02T00:56:09.114Z,20.92
2019-05-02T00:58:40.502Z,22.07
2019-05-02T01:01:13.217Z,25.20
2019-05-02T01:03:47.234Z,20.95
2019-05-02T01:06:18.288Z,23.83
2019-05-02T01:08:50.512Z,19.40
2019-05-02T01:11:23.080Z,24.63
2019-05-02T01:13:55.688Z,18.85
2019-05-02T01:16:27.982Z,23.22
2019-05-02T01:18:59.240Z,19.92
2019-05-02T01:21:33.996Z,22.98
2019-05-02T01:24:03.236Z,24.07
2019-05-02T01:26:37.576Z,17.87
2019-05-02T01:29:11.191Z,19.70
2019-05-02T01:31:43.528Z,20.97
2019-05-02T01:34:18.060Z,19.30
2019-05-02T01:36:51.163Z,21.33
2019-05-02T01:39:22.551Z,19.57
2019-05-02T01:41:54.531Z,22.32
2019-05-02T01:44:31.184Z,21.37
2019-05-02T01:47:01.955Z,22.87
2019-05-02T01:49:32.976Z,20.97
2019-05-02T01:52:04.659Z,18.70
2019-05-02T01:54:36.155Z,16.62
2019-05-02T01:57:16.224Z,27.48
2019-05-02T01:59:49.334Z,23.25
2019-05-02T02:02:19.916Z,19.10
2019-05-02T02:04:52.092Z,18.87
2019-05-02T02:07:24.251Z,18.40
2019-05-02T02:09:57.125Z,19.12
2019-05-02T02:12:27.520Z,14.73
2019-05-02T02:14:58.936Z,16.02
2019-05-02T02:17:36.893Z,21.80
2019-05-02T02:20:14.089Z,20.72
2019-05-02T02:22:46.091Z,22.02
2019-05-02T02:25:21.444Z,16.10
2019-05-02T02:27:54.995Z,15.43
2019-05-02T02:30:31.258Z,18.05
2019-05-02T02:33:07.370Z,17.17
2019-05-02T02:38:27.023Z,22.63
2019-05-02T02:40:59.508Z,20.15
2019-05-02T02:43:35.547Z,16.70
2019-05-02T02:46:10.926Z,19.77
2019-05-02T02:48:42.819Z,19.82
2019-05-02T02:51:22.180Z,20.25
2019-05-02T02:53:46.775Z,19.30
2019-05-02T02:56:20.725Z,14.20
2019-05-02T02:58:52.330Z,13.70
2019-05-02T03:04:13.349Z,18.62
2019-05-02T03:06:53.439Z,15.15
2019-05-02T03:09:26.619Z,14.47
2019-05-02T03:12:02.232Z,16.55
2019-05-02T03:14:40.985Z,14.63
2019-05-02T03:17:19.997Z,12.25
2019-05-02T03:19:47.502Z,13.80
2019-05-02T03:22:19.035Z,15.23
2019-05-02T03:24:50.827Z,17.02
2019-05-02T03:27:22.163Z,16.90
2019-05-02T03:29:53.562Z,14.00
2019-05-02T03:32:33.278Z,17.52
2019-05-02T03:35:00.512Z,13.15
2019-05-02T03:37:35.271Z,13.13
2019-05-02T03:40:09.695Z,13.05
2019-05-02T03:42:44.573Z,14.00
2019-05-02T03:45:16.042Z,14.03
2019-05-02T03:47:47.522Z,15.95
2019-05-02T03:50:31.053Z,14.63
2019-05-02T03:52:53.043Z,14.68
2019-05-02T03:55:31.334Z,17.50
2019-05-02T03:58:00.333Z,13.48
2019-05-02T04:00:33.596Z,12.93
2019-05-02T04:03:05.073Z,17.12
2019-05-02T04:05:40.552Z,15.80
2019-05-02T04:14:15.917Z,18.25
2019-05-02T04:16:48.663Z,18.42
2019-05-02T04:19:17.527Z,13.75
2019-05-02T04:21:54.873Z,12.45
2019-05-02T04:24:25.134Z,13.53
2019-05-02T04:27:06.219Z,12.03
2019-05-02T04:29:51.597Z,12.68
2019-05-02T04:32:22.507Z,11.10
2019-05-02T04:34:58.223Z,16.90
2019-05-02T04:37:34.388Z,20.00
2019-05-02T04:40:03.989Z,11.93
2019-05-02T04:42:40.922Z,12.65
2019-05-02T04:45:25.087Z,14.55
2019-05-02T04:47:54.878Z,11.20
2019-05-02T04:50:25.301Z,11.50
2019-05-02T04:52:53.813Z,10.10
2019-05-02T04:55:32.395Z,11.45
2019-05-02T04:58:01.761Z,11.33
2019-05-02T05:00:35.235Z,12.95
2019-05-02T05:03:15.503Z,11.90
2019-05-02T05:05:48.195Z,13.50
2019-05-02T05:08:26.618Z,12.03
2019-05-02T05:10:52.149Z,13.45
2019-05-02T05:13:26.164Z,15.23
2019-05-02T05:16:03.003Z,10.63
2019-05-02T05:18:32.024Z,10.00
2019-05-02T05:21:24.706Z,12.05
2019-05-02T05:23:59.594Z,20.23
2019-05-02T05:26:42.754Z,13.85
2019-05-02T05:29:13.971Z,18.87
2019-05-02T05:31:43.114Z,9.48
2019-05-02T05:34:14.287Z,15.28
2019-05-02T05:36:48.172Z,10.80
2019-05-02T05:39:21.400Z,10.10
2019-05-02T05:41:52.525Z,8.78
2019-05-02T05:44:27.339Z,13.98
2019-05-02T05:47:00.242Z,13.28
2019-05-02T05:49:31.069Z,10.15
2019-05-02T05:52:08.704Z,11.43
2019-05-02T05:54:41.982Z,10.65
2019-05-02T05:57:12.179Z,9.33
2019-05-02T05:59:44.345Z,12.50
2019-05-02T06:02:18.546Z,10.53
2019-05-02T06:04:50.282Z,10.35
2019-05-02T06:07:21.319Z,9.38
2019-05-02T06:09:52.604Z,11.55
2019-05-02T06:12:26.034Z,12.33
2019-05-02T06:15:01.782Z,10.75
2019-05-02T06:17:32.891Z,15.32
2019-05-02T06:20:07.432Z,9.90
2019-05-02T06:22:38.812Z,14.38
2019-05-02T06:25:15.589Z,10.45
2019-05-02T06:27:48.296Z,11.57
2019-05-02T06:30:21.675Z,12.65
2019-05-02T06:32:56.640Z,14.20
2019-05-02T06:35:27.850Z,11.25
2019-05-02T06:38:00.063Z,11.43
2019-05-02T06:40:30.992Z,8.85
2019-05-02T06:43:09.660Z,14.50
2019-05-02T06:45:41.677Z,14.93
2019-05-02T06:48:16.857Z,9.18
2019-05-02T06:50:45.953Z,10.80
2019-05-02T06:53:23.974Z,9.83
2019-05-02T06:55:55.358Z,7.55
2019-05-02T06:58:26.598Z,9.38
2019-05-02T07:00:59.955Z,9.35
2019-05-02T07:03:31.974Z,10.80
2019-05-02T07:06:07.667Z,10.25
2019-05-02T07:08:42.541Z,11.53
2019-05-02T07:11:13.700Z,23.52
2019-05-02T07:13:44.582Z,24.95
2019-05-02T07:16:36.877Z,27.42
2019-05-02T07:18:58.406Z,23.12
2019-05-02T07:21:29.452Z,11.97
2019-05-02T07:24:00.391Z,11.78
2019-05-02T07:26:33.153Z,8.53
2019-05-02T07:29:06.881Z,10.53
2019-05-02T07:31:42.921Z,10.23
2019-05-02T07:34:16.427Z,9.05
2019-05-02T07:36:50.862Z,9.83
2019-05-02T07:39:22.172Z,9.63
2019-05-02T07:41:53.407Z,8.18
2019-05-02T07:44:27.180Z,8.95
2019-05-02T07:47:02.738Z,8.38
2019-05-02T07:49:34.298Z,8.03
2019-05-02T07:52:08.381Z,4.97
2019-05-02T07:54:39.350Z,10.88
2019-05-02T07:57:15.010Z,8.28
2019-05-02T08:00:00.681Z,9.28
2019-05-02T08:02:31.532Z,10.60
2019-05-02T08:05:21.839Z,10.60
2019-05-02T08:07:53.385Z,8.08
2019-05-02T08:10:26.422Z,6.97
2019-05-02T08:12:57.756Z,7.08
2019-05-02T08:15:29.178Z,6.37
2019-05-02T08:18:00.284Z,7.33
2019-05-02T08:20:31.265Z,7.83
2019-05-02T08:23:05.036Z,8.35
2019-05-02T08:25:41.423Z,9.63
2019-05-02T08:28:16.025Z,24.95
2019-05-02T08:30:45.878Z,28.87
2019-05-02T08:33:19.401Z,12.35
2019-05-02T08:35:52.521Z,12.30
2019-05-02T08:38:23.671Z,6.50
2019-05-02T08:41:03.766Z,7.33
2019-05-02T08:43:34.826Z,6.47
2019-05-02T08:46:09.488Z,6.90
2019-05-02T08:48:41.757Z,8.13
2019-05-02T08:51:14.068Z,6.70
2019-05-02T08:53:52.043Z,11.50
2019-05-02T08:56:28.226Z,6.45
2019-05-02T08:59:00.138Z,8.33
2019-05-02T09:01:35.179Z,6.28
2019-05-02T09:04:06.515Z,7.92
2019-05-02T09:06:37.731Z,7.10
2019-05-02T09:09:10.412Z,8.45
2019-05-02T09:11:43.852Z,8.95
2019-05-02T09:14:14.529Z,8.08
2019-05-02T09:16:45.484Z,7.83
2019-05-02T09:19:21.438Z,9.20
2019-05-02T09:21:48.969Z,12.03
2019-05-02T09:24:24.829Z,10.28
2019-05-02T09:26:56.135Z,9.40
2019-05-02T09:29:27.073Z,7.85
2019-05-02T09:31:57.988Z,8.28
2019-05-02T09:34:31.854Z,7.85
2019-05-02T09:37:02.849Z,11.78
2019-05-02T09:39:36.492Z,9.65
2019-05-02T09:42:12.396Z,13.28
2019-05-02T09:44:42.573Z,7.50
2019-05-02T09:47:15.119Z,9.80
2019-05-02T09:49:49.132Z,9.38
2019-05-02T09:52:19.969Z,9.85
2019-05-02T09:54:51.876Z,8.85
2019-05-02T09:57:22.887Z,10.08
2019-05-02T09:59:55.717Z,9.63
2019-05-02T10:02:27.323Z,26.33
2019-05-02T10:05:07.073Z,14.93
2019-05-02T10:07:38.575Z,9.53
2019-05-02T10:10:12.578Z,9.05
2019-05-02T10:12:43.488Z,8.13
2019-05-02T10:15:16.661Z,6.67
2019-05-02T10:17:48.127Z,8.10
2019-05-02T10:20:23.485Z,5.42
2019-05-02T10:22:52.951Z,8.63
2019-05-02T10:25:24.013Z,7.42
2019-05-02T10:27:57.960Z,9.10
2019-05-02T10:30:33.647Z,7.08
2019-05-02T10:33:03.439Z,11.15
2019-05-02T10:35:40.536Z,7.37
2019-05-02T10:38:13.794Z,7.80
2019-05-02T10:40:42.442Z,7.17
2019-05-02T10:43:13.645Z,9.45
2019-05-02T10:45:47.305Z,9.03
2019-05-02T10:48:27.427Z,6.40
2019-05-02T10:50:53.491Z,9.05
2019-05-02T10:53:24.723Z,8.23
2019-05-02T10:55:56.726Z,9.65
2019-05-02T10:58:31.969Z,11.35
2019-05-02T11:01:02.111Z,13.13
2019-05-02T11:03:38.204Z,13.03
2019-05-02T11:06:08.216Z,11.03
2019-05-02T11:08:42.222Z,10.13
2019-05-02T11:11:13.813Z,12.00
2019-05-02T11:13:46.798Z,9.35
2019-05-02T11:16:21.566Z,9.85
2019-05-02T11:18:53.187Z,9.80
2019-05-02T11:21:25.230Z,8.50
2019-05-02T11:23:56.695Z,10.45
2019-05-02T11:26:27.998Z,12.68
2019-05-02T11:28:58.998Z,13.38
2019-05-02T11:31:30.001Z,10.48
2019-05-02T11:34:01.902Z,11.48
2019-05-02T11:36:33.129Z,8.68
2019-05-02T11:39:17.229Z,9.20
2019-05-02T11:41:42.252Z,10.72
2019-05-02T11:44:13.146Z,14.28
2019-05-02T11:46:46.927Z,9.73
2019-05-02T11:49:17.279Z,8.93
2019-05-02T11:51:52.653Z,9.78
2019-05-02T11:54:22.703Z,8.08
2019-05-02T11:56:54.011Z,9.58
2019-05-02T11:59:28.207Z,7.30
2019-05-02T12:02:00.107Z,10.08
2019-05-02T12:04:32.603Z,8.63
2019-05-02T12:07:04.953Z,15.08
2019-05-02T12:09:36.119Z,13.38
2019-05-02T12:12:07.359Z,8.03
2019-05-02T12:14:38.540Z,10.58
2019-05-02T12:17:09.748Z,12.25
2019-05-02T12:19:42.598Z,15.25
2019-05-02T12:22:16.912Z,20.25
2019-05-02T12:24:48.023Z,20.37
2019-05-02T12:27:19.541Z,17.12
2019-05-02T12:29:57.768Z,21.37
2019-05-02T12:32:23.328Z,20.25
2019-05-02T12:34:54.646Z,28.65
2019-05-02T12:37:25.436Z,18.32
2019-05-02T12:39:57.510Z,21.75
2019-05-02T12:42:29.770Z,24.30
2019-05-02T12:45:02.726Z,17.70
2019-05-02T12:47:33.657Z,16.05
2019-05-02T12:50:04.909Z,23.87
2019-05-02T12:52:36.471Z,18.67
2019-05-02T12:55:09.137Z,17.45
2019-05-02T12:57:40.275Z,17.70
2019-05-02T13:00:12.845Z,21.25
2019-05-02T13:02:45.438Z,21.12
2019-05-02T13:05:18.305Z,23.07
2019-05-02T13:07:55.548Z,19.30
2019-05-02T13:10:28.265Z,20.65
2019-05-02T13:12:59.614Z,20.40
2019-05-02T13:15:32.854Z,16.10
2019-05-02T13:18:03.355Z,16.25
2019-05-02T13:20:37.153Z,17.45
2019-05-02T13:23:12.707Z,23.65
2019-05-02T13:25:43.323Z,17.57
2019-05-02T13:28:17.211Z,12.68
2019-05-02T13:30:48.520Z,13.85
2019-05-02T13:33:22.632Z,11.25
2019-05-02T13:35:55.222Z,17.40
2019-05-02T13:38:26.338Z,13.85
2019-05-02T13:40:57.847Z,17.85
2019-05-02T13:43:32.229Z,17.90
2019-05-02T13:46:04.410Z,12.95
2019-05-02T13:48:35.389Z,11.95
2019-05-02T13:51:06.416Z,11.93
2019-05-02T13:53:39.000Z,21.90
2019-05-02T13:56:12.969Z,17.50
2019-05-02T13:58:43.941Z,16.27
2019-05-02T14:01:15.610Z,17.02
2019-05-02T14:03:46.842Z,11.83
2019-05-02T14:06:21.994Z,14.60
2019-05-02T14:08:53.390Z,14.50
2019-05-02T14:11:26.227Z,15.50
2019-05-02T14:13:57.901Z,15.08
2019-05-02T14:16:28.712Z,11.50
2019-05-02T14:19:00.066Z,13.30
2019-05-02T14:21:32.217Z,12.37
2019-05-02T14:24:03.414Z,11.60
2019-05-02T14:26:34.559Z,16.25
2019-05-02T14:29:07.190Z,9.53
2019-05-02T14:31:38.617Z,12.60
2019-05-02T14:34:12.120Z,13.43
2019-05-02T14:36:44.348Z,8.55
2019-05-02T14:39:15.946Z,11.28
2019-05-02T14:41:46.962Z,9.58
2019-05-02T14:44:18.149Z,10.75
2019-05-02T14:46:52.153Z,8.73
2019-05-02T14:49:25.511Z,9.48
2019-05-02T14:51:57.266Z,14.58
2019-05-02T14:54:29.771Z,12.07
2019-05-02T14:57:02.334Z,11.20
2019-05-02T14:59:33.440Z,16.90
2019-05-02T15:02:07.722Z,7.85
2019-05-02T15:04:44.422Z,11.33
2019-05-02T15:07:12.951Z,11.73
2019-05-02T15:09:43.589Z,11.25
2019-05-02T15:12:18.564Z,11.22
2019-05-02T15:14:54.002Z,11.25
2019-05-02T15:17:22.751Z,9.15
2019-05-02T15:19:53.982Z,9.93
2019-05-02T15:22:27.538Z,12.70
2019-05-02T15:24:57.967Z,12.43
2019-05-02T15:27:40.147Z,12.65
2019-05-02T15:30:06.905Z,20.72
2019-05-02T15:32:37.178Z,13.83
2019-05-02T15:35:12.957Z,14.28
2019-05-02T15:37:43.904Z,15.40
2019-05-02T15:40:43.394Z,14.73
2019-05-02T15:42:52.146Z,12.98
2019-05-02T15:45:24.005Z,14.03
2019-05-02T15:47:55.103Z,17.20
2019-05-02T15:50:26.343Z,11.43
2019-05-02T15:53:03.138Z,11.80
2019-05-02T15:55:32.413Z,11.12
2019-05-02T15:58:03.963Z,9.90
2019-05-02T16:00:36.354Z,10.15
2019-05-02T16:03:07.654Z,11.93
2019-05-02T16:05:41.213Z,13.38
2019-05-02T16:08:12.537Z,12.15
2019-05-02T16:10:44.201Z,11.43
2019-05-02T16:13:17.222Z,12.82
2019-05-02T16:15:48.458Z,11.12
2019-05-02T16:18:21.499Z,10.88
2019-05-02T16:21:04.853Z,12.43
2019-05-02T16:23:32.692Z,6.75
2019-05-02T16:26:03.832Z,7.83
2019-05-02T16:28:32.422Z,8.83
2019-05-02T16:31:04.483Z,8.73
2019-05-02T16:33:35.402Z,7.92
2019-05-02T16:36:06.533Z,9.20
2019-05-02T16:38:37.493Z,6.47
2019-05-02T16:41:09.852Z,7.10
2019-05-02T16:43:41.931Z,8.08
2019-05-02T16:46:14.286Z,9.50
2019-05-02T16:48:45.531Z,6.83
2019-05-02T16:51:30.034Z,9.70
2019-05-02T16:53:49.297Z,8.58
2019-05-02T16:56:22.260Z,7.08
2019-05-02T16:58:53.506Z,8.15
2019-05-02T17:01:27.488Z,6.78
2019-05-02T17:03:57.684Z,7.42
2019-05-02T17:06:32.454Z,9.08
2019-05-02T17:09:04.691Z,9.20
2019-05-02T17:11:37.006Z,7.12
2019-05-02T17:14:11.936Z,10.20
2019-05-02T17:16:42.043Z,12.45
2019-05-02T17:19:13.386Z,9.05
2019-05-02T17:21:53.215Z,10.88
2019-05-02T17:24:17.415Z,8.98
2019-05-02T17:26:49.607Z,12.07
2019-05-02T17:29:21.392Z,12.63
2019-05-02T17:31:55.447Z,13.48
2019-05-02T17:34:30.704Z,13.62
2019-05-02T17:36:59.180Z,14.58
2019-05-02T17:39:30.977Z,11.08
2019-05-02T17:42:02.683Z,13.38
2019-05-02T17:44:33.578Z,11.38
2019-05-02T17:47:05.429Z,14.00
2019-05-02T17:49:36.859Z,18.23
2019-05-02T17:52:11.230Z,12.33
2019-05-02T17:54:42.368Z,12.45
2019-05-02T17:57:13.584Z,14.43
2019-05-02T17:59:44.651Z,16.30
2019-05-02T18:02:16.078Z,10.82
2019-05-02T18:04:52.162Z,14.63
2019-05-02T18:07:19.729Z,13.38
2019-05-02T18:09:52.431Z,14.80
2019-05-02T18:12:23.885Z,13.18
2019-05-02T18:14:58.934Z,11.63
2019-05-02T18:17:31.804Z,11.38
2019-05-02T18:20:05.943Z,10.98
2019-05-02T18:22:39.982Z,11.50
2019-05-02T18:25:08.690Z,12.98
2019-05-02T18:27:39.646Z,13.83
2019-05-02T18:30:12.781Z,11.53
2019-05-02T18:32:44.380Z,11.80
2019-05-02T18:35:17.021Z,9.20
2019-05-02T18:37:48.272Z,13.15
2019-05-02T18:40:20.148Z,11.55
2019-05-02T18:42:56.382Z,9.85
2019-05-02T18:45:28.575Z,10.98
2019-05-02T18:48:02.474Z,13.03
2019-05-02T18:50:36.755Z,9.53
2019-05-02T18:53:09.283Z,10.38
2019-05-02T18:55:42.160Z,10.90
2019-05-02T18:58:13.465Z,11.95
2019-05-02T19:00:44.528Z,9.95
2019-05-02T19:03:17.323Z,10.53
2019-05-02T19:05:51.681Z,10.25
2019-05-02T19:08:29.063Z,12.07
2019-05-02T19:11:04.378Z,14.38
2019-05-02T19:13:26.405Z,11.08
2019-05-02T19:15:57.598Z,17.50
2019-05-02T19:18:28.849Z,10.63
2019-05-02T19:21:03.020Z,13.70
2019-05-02T19:23:34.299Z,8.20
2019-05-02T19:26:10.097Z,10.78
2019-05-02T19:28:42.534Z,12.37
2019-05-02T19:31:13.708Z,12.10
2019-05-02T19:33:45.050Z,8.60
2019-05-02T19:36:21.329Z,12.40
2019-05-02T19:38:48.877Z,11.25
2019-05-02T19:41:20.062Z,11.95
2019-05-02T19:43:53.360Z,9.68
2019-05-02T19:46:31.673Z,10.95
2019-05-02T19:48:57.658Z,14.93
2019-05-02T19:51:28.730Z,12.00
2019-05-02T19:54:01.849Z,11.00
2019-05-02T19:56:43.211Z,15.15
2019-05-02T19:59:06.252Z,11.75
2019-05-02T20:01:37.389Z,9.45
2019-05-02T20:04:14.367Z,13.05
2019-05-02T20:06:45.976Z,10.28
2019-05-02T20:09:17.033Z,10.25
2019-05-02T20:11:48.004Z,10.68
2019-05-02T20:14:19.365Z,10.85
2019-05-02T20:16:53.071Z,11.00
2019-05-02T20:19:26.979Z,9.30
2019-05-02T20:22:02.903Z,10.00
2019-05-02T20:24:32.140Z,11.73
2019-05-02T20:27:03.972Z,9.30
2019-05-02T20:29:35.149Z,14.33
2019-05-02T20:32:06.189Z,10.03
2019-05-02T20:34:37.038Z,9.33
2019-05-02T20:37:09.587Z,10.18
2019-05-02T20:39:41.660Z,12.53
2019-05-02T20:42:12.965Z,13.62
2019-05-02T20:44:43.977Z,11.50
2019-05-02T20:47:17.789Z,11.83
2019-05-02T20:49:49.212Z,11.40
2019-05-02T20:55:16.121Z,12.15
2019-05-02T20:57:47.134Z,9.95
2019-05-02T21:00:23.887Z,12.20
2019-05-02T21:02:55.230Z,11.70
2019-05-02T21:05:28.757Z,13.35
2019-05-02T21:08:02.181Z,10.55
2019-05-02T21:10:35.857Z,10.15
2019-05-02T21:13:07.399Z,12.15
2019-05-02T21:15:38.657Z,14.53
2019-05-02T21:18:11.683Z,10.60
2019-05-02T21:20:42.953Z,12.40
2019-05-02T21:23:14.201Z,10.15
2019-05-02T21:25:45.879Z,10.88
2019-05-02T21:28:17.121Z,9.80
2019-05-02T21:30:48.313Z,11.57
2019-05-02T21:33:22.428Z,14.33
2019-05-02T21:35:53.576Z,9.93
2019-05-02T21:38:24.636Z,10.28
2019-05-02T21:40:56.049Z,9.85
2019-05-02T21:43:28.351Z,11.75
2019-05-02T21:45:59.690Z,11.35
2019-05-02T21:48:32.640Z,7.87
2019-05-02T21:51:05.365Z,10.48
2019-05-02T21:53:38.556Z,9.58
2019-05-02T21:56:09.552Z,14.30
2019-05-02T21:58:42.764Z,13.45
2019-05-02T22:01:15.375Z,13.45
2019-05-02T22:03:46.795Z,14.03
2019-05-02T22:06:18.183Z,13.85
2019-05-02T22:08:49.119Z,15.10
2019-05-02T22:11:20.125Z,15.88
2019-05-02T22:13:51.783Z,11.05
2019-05-02T22:16:22.986Z,12.80
2019-05-02T22:18:53.958Z,14.33
2019-05-02T22:21:25.139Z,14.63
2019-05-02T22:24:07.837Z,11.55
2019-05-02T22:26:28.804Z,15.55
2019-05-02T22:29:02.982Z,13.75
2019-05-02T22:31:34.079Z,12.30
2019-05-02T22:34:05.300Z,18.17
2019-05-02T22:36:36.335Z,17.55
2019-05-02T22:39:12.564Z,13.68
2019-05-02T22:41:43.162Z,13.68
2019-05-02T22:44:14.379Z,13.43
2019-05-02T22:46:45.726Z,16.07
2019-05-02T22:49:17.280Z,13.48
2019-05-02T22:51:48.475Z,19.25
2019-05-02T22:54:29.592Z,12.85
2019-05-02T22:56:52.214Z,17.12
2019-05-02T22:59:26.096Z,17.75
2019-05-02T23:01:58.007Z,14.85
2019-05-02T23:04:29.262Z,14.68
2019-05-02T23:07:02.347Z,12.85
2019-05-02T23:09:34.585Z,17.00
2019-05-02T23:12:05.925Z,18.52
2019-05-02T23:14:36.997Z,20.00
2019-05-02T23:17:08.156Z,13.90
2019-05-02T23:19:39.466Z,16.82
2019-05-02T23:22:12.502Z,12.18
2019-05-02T23:24:44.629Z,17.80
2019-05-02T23:27:15.763Z,23.10
2019-05-02T23:29:46.589Z,16.57
2019-05-02T23:32:17.783Z,18.30
2019-05-02T23:34:49.100Z,12.70
2019-05-02T23:37:20.244Z,15.35
2019-05-02T23:39:52.277Z,18.80
2019-05-02T23:42:23.554Z,15.28
2019-05-02T23:44:54.670Z,18.80
2019-05-02T23:47:25.870Z,17.00
2019-05-02T23:49:59.745Z,15.23
2019-05-02T23:52:31.596Z,16.17
2019-05-02T23:55:03.058Z,15.08
2019-05-02T23:57:35.521Z,19.48
